sensor_id;sensor_type;location;lat;lon;timestamp;temperature;humidity
14908;DHT22;7545;52.092;7.006;2023-12-20T00:01:35;7.60;99.90
14908;DHT22;7545;52.092;7.006;2023-12-20T00:04:01;7.60;99.90
14908;DHT22;7545;52.092;7.006;2023-12-20T00:06:27;7.60;99.90
14908;DHT22;7545;52.092;7.006;2023-12-20T00:08:53;7.50;99.90
14908;DHT22;7545;52.092;7.006;2023-12-20T00:11:19;7.50;99.90
14908;DHT22;7545;52.092;7.006;2023-12-20T00:13:44;7.50;99.90
14908;DHT22;7545;52.092;7.006;2023-12-20T00:16:10;7.50;99.90
14908;DHT22;7545;52.092;7.006;2023-12-20T00:18:35;7.50;99.90
14908;DHT22;7545;52.092;7.006;2023-12-20T00:21:01;7.40;99.90
14908;DHT22;7545;52.092;7.006;2023-12-20T00:23:26;7.50;99.90
14908;DHT22;7545;52.092;7.006;2023-12-20T00:25:52;7.50;99.90
14908;DHT22;7545;52.092;7.006;2023-12-20T00:28:17;7.50;99.90
14908;DHT22;7545;52.092;7.006;2023-12-20T00:30:43;7.50;99.90
14908;DHT22;7545;52.092;7.006;2023-12-20T00:33:09;7.50;99.90
14908;DHT22;7545;52.092;7.006;2023-12-20T00:35:34;7.50;99.90
14908;DHT22;7545;52.092;7.006;2023-12-20T00:38:00;7.40;99.90
14908;DHT22;7545;52.092;7.006;2023-12-20T00:40:26;7.40;99.90
14908;DHT22;7545;52.092;7.006;2023-12-20T00:42:51;7.40;99.90
14908;DHT22;7545;52.092;7.006;2023-12-20T00:45:17;7.40;99.90
14908;DHT22;7545;52.092;7.006;2023-12-20T00:47:42;7.40;99.90
14908;DHT22;7545;52.092;7.006;2023-12-20T00:50:08;7.30;99.90
14908;DHT22;7545;52.092;7.006;2023-12-20T00:52:34;7.40;99.90
14908;DHT22;7545;52.092;7.006;2023-12-20T00:55:00;7.40;99.90
14908;DHT22;7545;52.092;7.006;2023-12-20T00:57:25;7.40;99.90
14908;DHT22;7545;52.092;7.006;2023-12-20T00:59:51;7.30;99.90
14908;DHT22;7545;52.092;7.006;2023-12-20T01:02:16;7.30;99.90
14908;DHT22;7545;52.092;7.006;2023-12-20T01:04:42;7.30;99.90
14908;DHT22;7545;52.092;7.006;2023-12-20T01:07:08;7.30;99.90
14908;DHT22;7545;52.092;7.006;2023-12-20T01:09:33;7.30;99.90
14908;DHT22;7545;52.092;7.006;2023-12-20T01:11:59;7.30;99.90
14908;DHT22;7545;52.092;7.006;2023-12-20T01:14:24;7.30;99.90
14908;DHT22;7545;52.092;7.006;2023-12-20T01:16:50;7.30;99.90
14908;DHT22;7545;52.092;7.006;2023-12-20T01:19:15;7.30;99.90
14908;DHT22;7545;52.092;7.006;2023-12-20T01:21:41;7.30;99.90
14908;DHT22;7545;52.092;7.006;2023-12-20T01:24:07;7.30;99.90
14908;DHT22;7545;52.092;7.006;2023-12-20T01:26:32;7.20;99.90
14908;DHT22;7545;52.092;7.006;2023-12-20T01:28:58;7.20;99.90
14908;DHT22;7545;52.092;7.006;2023-12-20T01:31:23;7.20;99.90
14908;DHT22;7545;52.092;7.006;2023-12-20T01:33:49;7.20;99.90
14908;DHT22;7545;52.092;7.006;2023-12-20T01:36:15;7.20;99.90
14908;DHT22;7545;52.092;7.006;2023-12-20T01:38:46;7.20;99.90
14908;DHT22;7545;52.092;7.006;2023-12-20T01:41:12;7.10;99.90
14908;DHT22;7545;52.092;7.006;2023-12-20T01:43:37;7.10;99.90
14908;DHT22;7545;52.092;7.006;2023-12-20T01:46:03;7.10;99.90
14908;DHT22;7545;52.092;7.006;2023-12-20T01:48:29;7.00;99.90
14908;DHT22;7545;52.092;7.006;2023-12-20T01:50:58;7.00;99.90
14908;DHT22;7545;52.092;7.006;2023-12-20T01:53:25;7.00;99.90
14908;DHT22;7545;52.092;7.006;2023-12-20T01:55:54;7.00;99.90
14908;DHT22;7545;52.092;7.006;2023-12-20T01:58:21;7.00;99.90
14908;DHT22;7545;52.092;7.006;2023-12-20T02:00:48;6.90;99.90
14908;DHT22;7545;52.092;7.006;2023-12-20T02:03:14;6.90;99.90
14908;DHT22;7545;52.092;7.006;2023-12-20T02:05:40;6.90;99.90
14908;DHT22;7545;52.092;7.006;2023-12-20T02:08:06;6.80;99.90
14908;DHT22;7545;52.092;7.006;2023-12-20T02:10:32;6.80;99.90
14908;DHT22;7545;52.092;7.006;2023-12-20T02:12:58;6.80;99.90
14908;DHT22;7545;52.092;7.006;2023-12-20T02:15:24;6.80;99.90
14908;DHT22;7545;52.092;7.006;2023-12-20T02:17:50;6.90;99.90
14908;DHT22;7545;52.092;7.006;2023-12-20T02:20:16;6.80;99.90
14908;DHT22;7545;52.092;7.006;2023-12-20T02:22:41;6.80;99.90
14908;DHT22;7545;52.092;7.006;2023-12-20T02:25:07;6.80;99.90
14908;DHT22;7545;52.092;7.006;2023-12-20T02:27:33;6.80;99.90
14908;DHT22;7545;52.092;7.006;2023-12-20T02:29:59;6.80;99.90
14908;DHT22;7545;52.092;7.006;2023-12-20T02:32:25;6.80;99.90
14908;DHT22;7545;52.092;7.006;2023-12-20T02:34:55;6.80;99.90
14908;DHT22;7545;52.092;7.006;2023-12-20T02:37:21;6.80;99.90
14908;DHT22;7545;52.092;7.006;2023-12-20T02:39:46;6.80;99.90
14908;DHT22;7545;52.092;7.006;2023-12-20T02:42:12;6.80;99.90
14908;DHT22;7545;52.092;7.006;2023-12-20T02:44:37;6.80;99.90
14908;DHT22;7545;52.092;7.006;2023-12-20T02:47:03;6.80;99.90
14908;DHT22;7545;52.092;7.006;2023-12-20T02:49:29;6.80;99.90
14908;DHT22;7545;52.092;7.006;2023-12-20T02:51:55;6.80;99.90
14908;DHT22;7545;52.092;7.006;2023-12-20T02:54:20;6.80;99.90
14908;DHT22;7545;52.092;7.006;2023-12-20T02:56:46;6.80;99.90
14908;DHT22;7545;52.092;7.006;2023-12-20T02:59:12;6.80;99.90
14908;DHT22;7545;52.092;7.006;2023-12-20T03:01:44;6.80;99.90
14908;DHT22;7545;52.092;7.006;2023-12-20T03:04:10;6.80;99.90
14908;DHT22;7545;52.092;7.006;2023-12-20T03:06:36;6.80;99.90
14908;DHT22;7545;52.092;7.006;2023-12-20T03:09:01;6.80;99.90
14908;DHT22;7545;52.092;7.006;2023-12-20T03:11:27;6.80;99.90
14908;DHT22;7545;52.092;7.006;2023-12-20T03:13:54;6.80;99.90
14908;DHT22;7545;52.092;7.006;2023-12-20T03:16:19;6.70;99.90
14908;DHT22;7545;52.092;7.006;2023-12-20T03:18:45;6.70;99.90
14908;DHT22;7545;52.092;7.006;2023-12-20T03:21:10;6.70;99.90
14908;DHT22;7545;52.092;7.006;2023-12-20T03:23:36;6.70;99.90
14908;DHT22;7545;52.092;7.006;2023-12-20T03:26:02;6.70;99.90
14908;DHT22;7545;52.092;7.006;2023-12-20T03:28:27;6.70;99.90
14908;DHT22;7545;52.092;7.006;2023-12-20T03:30:53;6.70;99.90
14908;DHT22;7545;52.092;7.006;2023-12-20T03:33:19;6.70;99.90
14908;DHT22;7545;52.092;7.006;2023-12-20T03:35:44;6.70;99.90
14908;DHT22;7545;52.092;7.006;2023-12-20T03:38:10;6.70;99.90
14908;DHT22;7545;52.092;7.006;2023-12-20T03:40:36;6.70;99.90
14908;DHT22;7545;52.092;7.006;2023-12-20T03:43:01;6.70;99.90
14908;DHT22;7545;52.092;7.006;2023-12-20T03:45:27;6.70;99.90
14908;DHT22;7545;52.092;7.006;2023-12-20T03:47:52;6.60;99.90
14908;DHT22;7545;52.092;7.006;2023-12-20T03:50:25;6.60;99.90
14908;DHT22;7545;52.092;7.006;2023-12-20T03:52:51;6.70;99.90
14908;DHT22;7545;52.092;7.006;2023-12-20T03:55:16;6.70;99.90
14908;DHT22;7545;52.092;7.006;2023-12-20T03:57:42;6.70;99.90
14908;DHT22;7545;52.092;7.006;2023-12-20T04:00:08;6.70;99.90
14908;DHT22;7545;52.092;7.006;2023-12-20T04:02:38;6.70;99.90
14908;DHT22;7545;52.092;7.006;2023-12-20T04:05:04;6.70;99.90
14908;DHT22;7545;52.092;7.006;2023-12-20T04:07:30;6.80;99.90
14908;DHT22;7545;52.092;7.006;2023-12-20T04:09:56;6.70;99.90
14908;DHT22;7545;52.092;7.006;2023-12-20T04:12:21;6.70;99.90
14908;DHT22;7545;52.092;7.006;2023-12-20T04:14:47;6.70;99.90
14908;DHT22;7545;52.092;7.006;2023-12-20T04:17:12;6.70;99.90
14908;DHT22;7545;52.092;7.006;2023-12-20T04:19:38;6.70;99.90
14908;DHT22;7545;52.092;7.006;2023-12-20T04:22:03;6.70;99.90
14908;DHT22;7545;52.092;7.006;2023-12-20T04:24:29;6.70;99.90
14908;DHT22;7545;52.092;7.006;2023-12-20T04:26:54;6.70;99.90
14908;DHT22;7545;52.092;7.006;2023-12-20T04:29:20;6.70;99.90
14908;DHT22;7545;52.092;7.006;2023-12-20T04:31:46;6.70;99.90
14908;DHT22;7545;52.092;7.006;2023-12-20T04:34:11;6.70;99.90
14908;DHT22;7545;52.092;7.006;2023-12-20T04:36:37;6.60;99.90
14908;DHT22;7545;52.092;7.006;2023-12-20T04:39:02;6.70;99.90
14908;DHT22;7545;52.092;7.006;2023-12-20T04:41:28;6.70;99.90
14908;DHT22;7545;52.092;7.006;2023-12-20T04:43:54;6.70;99.90
14908;DHT22;7545;52.092;7.006;2023-12-20T04:46:19;6.70;99.90
14908;DHT22;7545;52.092;7.006;2023-12-20T04:48:45;6.70;99.90
14908;DHT22;7545;52.092;7.006;2023-12-20T04:51:10;6.70;99.90
14908;DHT22;7545;52.092;7.006;2023-12-20T04:53:36;6.70;99.90
14908;DHT22;7545;52.092;7.006;2023-12-20T04:56:01;6.70;99.90
14908;DHT22;7545;52.092;7.006;2023-12-20T04:58:27;6.70;99.90
14908;DHT22;7545;52.092;7.006;2023-12-20T05:00:53;6.70;99.90
14908;DHT22;7545;52.092;7.006;2023-12-20T05:03:18;6.70;99.90
14908;DHT22;7545;52.092;7.006;2023-12-20T05:05:44;6.70;99.90
14908;DHT22;7545;52.092;7.006;2023-12-20T05:08:09;6.70;99.90
14908;DHT22;7545;52.092;7.006;2023-12-20T05:10:35;6.70;99.90
14908;DHT22;7545;52.092;7.006;2023-12-20T05:13:02;6.70;99.90
14908;DHT22;7545;52.092;7.006;2023-12-20T05:15:27;6.70;99.90
14908;DHT22;7545;52.092;7.006;2023-12-20T05:17:53;6.70;99.90
14908;DHT22;7545;52.092;7.006;2023-12-20T05:20:19;6.70;99.90
14908;DHT22;7545;52.092;7.006;2023-12-20T05:22:44;6.70;99.90
14908;DHT22;7545;52.092;7.006;2023-12-20T05:25:10;6.70;99.90
14908;DHT22;7545;52.092;7.006;2023-12-20T05:27:36;6.70;99.90
14908;DHT22;7545;52.092;7.006;2023-12-20T05:30:01;6.80;99.90
14908;DHT22;7545;52.092;7.006;2023-12-20T05:32:27;6.80;99.90
14908;DHT22;7545;52.092;7.006;2023-12-20T05:34:53;6.80;99.90
14908;DHT22;7545;52.092;7.006;2023-12-20T05:37:18;6.80;99.90
14908;DHT22;7545;52.092;7.006;2023-12-20T05:39:44;6.80;99.90
14908;DHT22;7545;52.092;7.006;2023-12-20T05:42:09;6.80;99.90
14908;DHT22;7545;52.092;7.006;2023-12-20T05:44:35;6.80;99.90
14908;DHT22;7545;52.092;7.006;2023-12-20T05:47:01;6.80;99.90
14908;DHT22;7545;52.092;7.006;2023-12-20T05:49:27;6.80;99.90
14908;DHT22;7545;52.092;7.006;2023-12-20T05:51:52;6.80;99.90
14908;DHT22;7545;52.092;7.006;2023-12-20T05:54:19;6.80;99.90
14908;DHT22;7545;52.092;7.006;2023-12-20T05:56:44;6.80;99.90
14908;DHT22;7545;52.092;7.006;2023-12-20T05:59:29;6.80;99.90
14908;DHT22;7545;52.092;7.006;2023-12-20T06:01:54;6.80;99.90
14908;DHT22;7545;52.092;7.006;2023-12-20T06:04:20;6.80;99.90
14908;DHT22;7545;52.092;7.006;2023-12-20T06:06:46;6.80;99.90
14908;DHT22;7545;52.092;7.006;2023-12-20T06:09:11;6.80;99.90
14908;DHT22;7545;52.092;7.006;2023-12-20T06:11:37;6.80;99.90
14908;DHT22;7545;52.092;7.006;2023-12-20T06:14:03;6.80;99.90
14908;DHT22;7545;52.092;7.006;2023-12-20T06:16:28;6.80;99.90
14908;DHT22;7545;52.092;7.006;2023-12-20T06:18:54;6.80;99.90
14908;DHT22;7545;52.092;7.006;2023-12-20T06:21:19;6.80;99.90
14908;DHT22;7545;52.092;7.006;2023-12-20T06:23:45;6.80;99.90
14908;DHT22;7545;52.092;7.006;2023-12-20T06:26:11;6.80;99.90
14908;DHT22;7545;52.092;7.006;2023-12-20T06:28:36;6.80;99.90
14908;DHT22;7545;52.092;7.006;2023-12-20T06:31:02;6.80;99.90
14908;DHT22;7545;52.092;7.006;2023-12-20T06:33:28;6.90;99.90
14908;DHT22;7545;52.092;7.006;2023-12-20T06:35:56;6.90;99.90
14908;DHT22;7545;52.092;7.006;2023-12-20T06:38:22;6.90;99.90
14908;DHT22;7545;52.092;7.006;2023-12-20T06:40:47;6.90;99.90
14908;DHT22;7545;52.092;7.006;2023-12-20T06:43:13;6.90;99.90
14908;DHT22;7545;52.092;7.006;2023-12-20T06:45:39;6.90;99.90
14908;DHT22;7545;52.092;7.006;2023-12-20T06:48:05;6.90;99.90
14908;DHT22;7545;52.092;7.006;2023-12-20T06:50:31;6.90;99.90
14908;DHT22;7545;52.092;7.006;2023-12-20T06:52:56;6.90;99.90
14908;DHT22;7545;52.092;7.006;2023-12-20T06:55:22;6.90;99.90
14908;DHT22;7545;52.092;7.006;2023-12-20T06:57:48;7.00;99.90
14908;DHT22;7545;52.092;7.006;2023-12-20T07:00:14;7.00;99.90
14908;DHT22;7545;52.092;7.006;2023-12-20T07:02:40;7.00;99.90
14908;DHT22;7545;52.092;7.006;2023-12-20T07:05:05;7.00;99.90
14908;DHT22;7545;52.092;7.006;2023-12-20T07:07:31;7.00;99.90
14908;DHT22;7545;52.092;7.006;2023-12-20T07:09:57;7.00;99.90
14908;DHT22;7545;52.092;7.006;2023-12-20T07:12:22;6.90;99.90
14908;DHT22;7545;52.092;7.006;2023-12-20T07:14:48;7.00;99.90
14908;DHT22;7545;52.092;7.006;2023-12-20T07:17:14;7.00;99.90
14908;DHT22;7545;52.092;7.006;2023-12-20T07:19:41;7.00;99.90
14908;DHT22;7545;52.092;7.006;2023-12-20T07:22:06;7.00;99.90
14908;DHT22;7545;52.092;7.006;2023-12-20T07:24:32;6.90;99.90
14908;DHT22;7545;52.092;7.006;2023-12-20T07:26:59;7.00;99.90
14908;DHT22;7545;52.092;7.006;2023-12-20T07:29:25;7.00;99.90
14908;DHT22;7545;52.092;7.006;2023-12-20T07:31:50;7.00;99.90
14908;DHT22;7545;52.092;7.006;2023-12-20T07:34:17;7.00;99.90
14908;DHT22;7545;52.092;7.006;2023-12-20T07:36:44;7.00;99.90
14908;DHT22;7545;52.092;7.006;2023-12-20T07:39:10;7.00;99.90
14908;DHT22;7545;52.092;7.006;2023-12-20T07:41:36;7.00;99.90
14908;DHT22;7545;52.092;7.006;2023-12-20T07:44:01;7.00;99.90
14908;DHT22;7545;52.092;7.006;2023-12-20T07:46:27;7.00;99.90
14908;DHT22;7545;52.092;7.006;2023-12-20T07:48:52;7.00;99.90
14908;DHT22;7545;52.092;7.006;2023-12-20T07:51:18;7.00;99.90
14908;DHT22;7545;52.092;7.006;2023-12-20T07:53:43;7.00;99.90
14908;DHT22;7545;52.092;7.006;2023-12-20T07:56:19;7.00;99.90
14908;DHT22;7545;52.092;7.006;2023-12-20T07:58:45;7.00;99.90
14908;DHT22;7545;52.092;7.006;2023-12-20T08:01:12;7.10;99.90
14908;DHT22;7545;52.092;7.006;2023-12-20T08:03:38;7.10;99.90
14908;DHT22;7545;52.092;7.006;2023-12-20T08:06:04;7.10;99.90
14908;DHT22;7545;52.092;7.006;2023-12-20T08:08:30;7.10;99.90
14908;DHT22;7545;52.092;7.006;2023-12-20T08:10:55;7.10;99.90
14908;DHT22;7545;52.092;7.006;2023-12-20T08:13:23;7.10;99.90
14908;DHT22;7545;52.092;7.006;2023-12-20T08:15:51;7.10;99.90
14908;DHT22;7545;52.092;7.006;2023-12-20T08:18:17;7.10;99.90
14908;DHT22;7545;52.092;7.006;2023-12-20T08:20:42;7.20;99.90
14908;DHT22;7545;52.092;7.006;2023-12-20T08:23:08;7.20;99.90
14908;DHT22;7545;52.092;7.006;2023-12-20T08:25:33;7.20;99.90
14908;DHT22;7545;52.092;7.006;2023-12-20T08:27:59;7.20;99.90
14908;DHT22;7545;52.092;7.006;2023-12-20T08:30:24;7.20;99.90
14908;DHT22;7545;52.092;7.006;2023-12-20T08:32:50;7.20;99.90
14908;DHT22;7545;52.092;7.006;2023-12-20T08:35:16;7.20;99.90
14908;DHT22;7545;52.092;7.006;2023-12-20T08:37:43;7.20;99.90
14908;DHT22;7545;52.092;7.006;2023-12-20T08:40:09;7.20;99.90
14908;DHT22;7545;52.092;7.006;2023-12-20T08:42:35;7.20;99.90
14908;DHT22;7545;52.092;7.006;2023-12-20T08:45:00;7.20;99.90
14908;DHT22;7545;52.092;7.006;2023-12-20T08:47:26;7.20;99.90
14908;DHT22;7545;52.092;7.006;2023-12-20T08:49:52;7.20;99.90
14908;DHT22;7545;52.092;7.006;2023-12-20T08:52:22;7.30;99.90
14908;DHT22;7545;52.092;7.006;2023-12-20T08:54:49;7.30;99.90
14908;DHT22;7545;52.092;7.006;2023-12-20T08:57:18;7.20;99.90
14908;DHT22;7545;52.092;7.006;2023-12-20T08:59:44;7.30;99.90
14908;DHT22;7545;52.092;7.006;2023-12-20T09:02:09;7.30;99.90
14908;DHT22;7545;52.092;7.006;2023-12-20T09:04:35;7.30;99.90
14908;DHT22;7545;52.092;7.006;2023-12-20T09:07:00;7.30;99.90
14908;DHT22;7545;52.092;7.006;2023-12-20T09:09:26;7.30;99.90
14908;DHT22;7545;52.092;7.006;2023-12-20T09:11:52;7.30;99.90
14908;DHT22;7545;52.092;7.006;2023-12-20T09:14:18;7.30;99.90
14908;DHT22;7545;52.092;7.006;2023-12-20T09:16:43;7.40;99.90
14908;DHT22;7545;52.092;7.006;2023-12-20T09:19:09;7.40;99.90
14908;DHT22;7545;52.092;7.006;2023-12-20T09:21:34;7.40;99.90
14908;DHT22;7545;52.092;7.006;2023-12-20T09:24:00;7.40;99.90
14908;DHT22;7545;52.092;7.006;2023-12-20T09:26:25;7.30;99.90
14908;DHT22;7545;52.092;7.006;2023-12-20T09:28:51;7.40;99.90
14908;DHT22;7545;52.092;7.006;2023-12-20T09:31:17;7.30;99.90
14908;DHT22;7545;52.092;7.006;2023-12-20T09:33:42;7.30;99.90
14908;DHT22;7545;52.092;7.006;2023-12-20T09:36:08;7.40;99.90
14908;DHT22;7545;52.092;7.006;2023-12-20T09:38:33;7.30;99.90
14908;DHT22;7545;52.092;7.006;2023-12-20T09:40:59;7.30;99.90
14908;DHT22;7545;52.092;7.006;2023-12-20T09:43:27;7.30;99.90
14908;DHT22;7545;52.092;7.006;2023-12-20T09:46:00;7.30;99.90
14908;DHT22;7545;52.092;7.006;2023-12-20T09:48:26;7.30;99.90
14908;DHT22;7545;52.092;7.006;2023-12-20T09:50:53;7.30;99.90
14908;DHT22;7545;52.092;7.006;2023-12-20T09:53:19;7.30;99.90
14908;DHT22;7545;52.092;7.006;2023-12-20T09:55:45;7.30;99.90
14908;DHT22;7545;52.092;7.006;2023-12-20T09:58:10;7.30;99.90
14908;DHT22;7545;52.092;7.006;2023-12-20T10:00:36;7.30;99.90
14908;DHT22;7545;52.092;7.006;2023-12-20T10:03:03;7.30;99.90
14908;DHT22;7545;52.092;7.006;2023-12-20T10:05:32;7.30;99.90
14908;DHT22;7545;52.092;7.006;2023-12-20T10:07:59;7.30;99.90
14908;DHT22;7545;52.092;7.006;2023-12-20T10:10:26;7.30;99.90
14908;DHT22;7545;52.092;7.006;2023-12-20T10:13:04;7.20;99.90
14908;DHT22;7545;52.092;7.006;2023-12-20T10:15:32;7.30;99.90
14908;DHT22;7545;52.092;7.006;2023-12-20T10:17:57;7.30;99.90
14908;DHT22;7545;52.092;7.006;2023-12-20T10:20:23;7.30;99.90
14908;DHT22;7545;52.092;7.006;2023-12-20T10:22:49;7.40;99.90
14908;DHT22;7545;52.092;7.006;2023-12-20T10:25:15;7.30;99.90
14908;DHT22;7545;52.092;7.006;2023-12-20T10:27:41;7.40;99.90
14908;DHT22;7545;52.092;7.006;2023-12-20T10:30:07;7.30;99.90
14908;DHT22;7545;52.092;7.006;2023-12-20T10:32:32;7.30;99.90
14908;DHT22;7545;52.092;7.006;2023-12-20T10:34:59;7.30;99.90
14908;DHT22;7545;52.092;7.006;2023-12-20T10:37:25;7.30;99.90
14908;DHT22;7545;52.092;7.006;2023-12-20T10:39:51;7.30;99.90
14908;DHT22;7545;52.092;7.006;2023-12-20T10:42:21;7.30;99.90
14908;DHT22;7545;52.092;7.006;2023-12-20T10:44:47;7.30;99.90
14908;DHT22;7545;52.092;7.006;2023-12-20T10:47:14;7.30;99.90
14908;DHT22;7545;52.092;7.006;2023-12-20T10:49:40;7.30;99.90
14908;DHT22;7545;52.092;7.006;2023-12-20T10:52:08;7.30;99.90
14908;DHT22;7545;52.092;7.006;2023-12-20T10:54:34;7.30;99.90
14908;DHT22;7545;52.092;7.006;2023-12-20T10:57:00;7.30;99.90
14908;DHT22;7545;52.092;7.006;2023-12-20T10:59:27;7.40;99.90
14908;DHT22;7545;52.092;7.006;2023-12-20T11:01:55;7.40;99.90
14908;DHT22;7545;52.092;7.006;2023-12-20T11:04:28;7.40;99.90
14908;DHT22;7545;52.092;7.006;2023-12-20T11:07:01;7.50;99.90
14908;DHT22;7545;52.092;7.006;2023-12-20T11:09:34;7.50;99.90
14908;DHT22;7545;52.092;7.006;2023-12-20T11:12:16;7.60;99.90
14908;DHT22;7545;52.092;7.006;2023-12-20T11:14:52;7.60;99.90
14908;DHT22;7545;52.092;7.006;2023-12-20T11:17:18;7.70;99.90
14908;DHT22;7545;52.092;7.006;2023-12-20T11:20:04;7.70;99.90
14908;DHT22;7545;52.092;7.006;2023-12-20T11:22:31;7.80;99.90
14908;DHT22;7545;52.092;7.006;2023-12-20T11:25:08;7.80;99.90
14908;DHT22;7545;52.092;7.006;2023-12-20T11:27:34;7.80;99.90
14908;DHT22;7545;52.092;7.006;2023-12-20T11:30:03;7.80;99.90
14908;DHT22;7545;52.092;7.006;2023-12-20T11:32:32;7.80;99.90
14908;DHT22;7545;52.092;7.006;2023-12-20T11:37:36;7.90;99.90
14908;DHT22;7545;52.092;7.006;2023-12-20T11:42:33;8.00;99.90
14908;DHT22;7545;52.092;7.006;2023-12-20T11:45:01;8.10;99.90
14908;DHT22;7545;52.092;7.006;2023-12-20T11:47:29;8.10;99.90
14908;DHT22;7545;52.092;7.006;2023-12-20T11:49:55;8.10;99.90
14908;DHT22;7545;52.092;7.006;2023-12-20T11:52:21;8.10;99.90
14908;DHT22;7545;52.092;7.006;2023-12-20T11:54:47;8.20;99.90
14908;DHT22;7545;52.092;7.006;2023-12-20T11:57:13;8.10;99.90
14908;DHT22;7545;52.092;7.006;2023-12-20T11:59:39;8.20;99.90
14908;DHT22;7545;52.092;7.006;2023-12-20T12:02:05;8.20;99.90
14908;DHT22;7545;52.092;7.006;2023-12-20T12:04:31;8.20;99.90
14908;DHT22;7545;52.092;7.006;2023-12-20T12:06:56;8.20;99.90
14908;DHT22;7545;52.092;7.006;2023-12-20T12:09:22;8.30;99.90
14908;DHT22;7545;52.092;7.006;2023-12-20T12:11:47;8.30;99.90
14908;DHT22;7545;52.092;7.006;2023-12-20T12:14:14;8.30;99.90
14908;DHT22;7545;52.092;7.006;2023-12-20T12:16:42;8.30;99.90
14908;DHT22;7545;52.092;7.006;2023-12-20T12:19:14;8.40;99.90
14908;DHT22;7545;52.092;7.006;2023-12-20T12:21:45;8.30;99.90
14908;DHT22;7545;52.092;7.006;2023-12-20T12:24:10;8.30;99.90
14908;DHT22;7545;52.092;7.006;2023-12-20T12:26:36;8.40;99.90
14908;DHT22;7545;52.092;7.006;2023-12-20T12:29:02;8.40;99.90
14908;DHT22;7545;52.092;7.006;2023-12-20T12:31:27;8.40;99.90
14908;DHT22;7545;52.092;7.006;2023-12-20T12:33:53;8.40;99.90
14908;DHT22;7545;52.092;7.006;2023-12-20T12:36:19;8.40;99.90
14908;DHT22;7545;52.092;7.006;2023-12-20T12:38:44;8.40;99.90
14908;DHT22;7545;52.092;7.006;2023-12-20T12:41:13;8.40;99.90
14908;DHT22;7545;52.092;7.006;2023-12-20T12:43:38;8.40;99.90
14908;DHT22;7545;52.092;7.006;2023-12-20T12:46:04;8.40;99.90
14908;DHT22;7545;52.092;7.006;2023-12-20T12:48:29;8.40;99.90
14908;DHT22;7545;52.092;7.006;2023-12-20T12:50:55;8.40;99.90
14908;DHT22;7545;52.092;7.006;2023-12-20T12:53:25;8.40;99.90
14908;DHT22;7545;52.092;7.006;2023-12-20T12:55:51;8.40;99.90
14908;DHT22;7545;52.092;7.006;2023-12-20T12:58:16;8.30;99.90
14908;DHT22;7545;52.092;7.006;2023-12-20T13:00:42;8.30;99.90
14908;DHT22;7545;52.092;7.006;2023-12-20T13:03:08;8.30;99.90
14908;DHT22;7545;52.092;7.006;2023-12-20T13:05:34;8.40;99.90
14908;DHT22;7545;52.092;7.006;2023-12-20T13:07:59;8.40;99.90
14908;DHT22;7545;52.092;7.006;2023-12-20T13:10:25;8.40;99.90
14908;DHT22;7545;52.092;7.006;2023-12-20T13:12:50;8.40;99.90
14908;DHT22;7545;52.092;7.006;2023-12-20T13:15:16;8.40;99.90
14908;DHT22;7545;52.092;7.006;2023-12-20T13:17:42;8.40;99.90
14908;DHT22;7545;52.092;7.006;2023-12-20T13:20:07;8.40;99.90
14908;DHT22;7545;52.092;7.006;2023-12-20T13:22:33;8.40;99.90
14908;DHT22;7545;52.092;7.006;2023-12-20T13:24:59;8.40;99.90
14908;DHT22;7545;52.092;7.006;2023-12-20T13:27:24;8.40;99.90
14908;DHT22;7545;52.092;7.006;2023-12-20T13:29:50;8.30;99.90
14908;DHT22;7545;52.092;7.006;2023-12-20T13:32:15;8.40;99.90
14908;DHT22;7545;52.092;7.006;2023-12-20T13:34:41;8.40;99.90
14908;DHT22;7545;52.092;7.006;2023-12-20T13:37:06;8.40;99.90
14908;DHT22;7545;52.092;7.006;2023-12-20T13:39:32;8.40;99.90
14908;DHT22;7545;52.092;7.006;2023-12-20T13:41:58;8.40;99.90
14908;DHT22;7545;52.092;7.006;2023-12-20T13:44:23;8.40;99.90
14908;DHT22;7545;52.092;7.006;2023-12-20T13:46:50;8.50;99.90
14908;DHT22;7545;52.092;7.006;2023-12-20T13:49:15;8.40;99.90
14908;DHT22;7545;52.092;7.006;2023-12-20T13:51:41;8.40;99.90
14908;DHT22;7545;52.092;7.006;2023-12-20T13:54:06;8.50;99.90
14908;DHT22;7545;52.092;7.006;2023-12-20T13:56:32;8.40;99.90
14908;DHT22;7545;52.092;7.006;2023-12-20T13:58:58;8.40;99.90
14908;DHT22;7545;52.092;7.006;2023-12-20T14:01:25;8.40;99.90
14908;DHT22;7545;52.092;7.006;2023-12-20T14:03:51;8.40;99.90
14908;DHT22;7545;52.092;7.006;2023-12-20T14:06:17;8.40;99.90
14908;DHT22;7545;52.092;7.006;2023-12-20T14:08:43;8.40;99.90
14908;DHT22;7545;52.092;7.006;2023-12-20T14:11:09;8.40;99.90
14908;DHT22;7545;52.092;7.006;2023-12-20T14:13:35;8.40;99.90
14908;DHT22;7545;52.092;7.006;2023-12-20T14:16:00;8.40;99.90
14908;DHT22;7545;52.092;7.006;2023-12-20T14:18:27;8.40;99.90
14908;DHT22;7545;52.092;7.006;2023-12-20T14:20:53;8.40;99.90
14908;DHT22;7545;52.092;7.006;2023-12-20T14:23:19;8.30;99.90
14908;DHT22;7545;52.092;7.006;2023-12-20T14:25:44;8.30;99.90
14908;DHT22;7545;52.092;7.006;2023-12-20T14:28:10;8.30;99.90
14908;DHT22;7545;52.092;7.006;2023-12-20T14:30:39;8.30;99.90
14908;DHT22;7545;52.092;7.006;2023-12-20T14:33:04;8.30;99.90
14908;DHT22;7545;52.092;7.006;2023-12-20T14:35:30;8.30;99.90
14908;DHT22;7545;52.092;7.006;2023-12-20T14:37:56;8.30;99.90
14908;DHT22;7545;52.092;7.006;2023-12-20T14:40:22;8.30;99.90
14908;DHT22;7545;52.092;7.006;2023-12-20T14:42:48;8.30;99.90
14908;DHT22;7545;52.092;7.006;2023-12-20T14:45:14;8.30;99.90
14908;DHT22;7545;52.092;7.006;2023-12-20T14:47:42;8.30;99.90
14908;DHT22;7545;52.092;7.006;2023-12-20T14:50:08;8.30;99.90
14908;DHT22;7545;52.092;7.006;2023-12-20T14:52:34;8.30;99.90
14908;DHT22;7545;52.092;7.006;2023-12-20T14:55:03;8.30;99.90
14908;DHT22;7545;52.092;7.006;2023-12-20T14:57:28;8.30;99.90
14908;DHT22;7545;52.092;7.006;2023-12-20T14:59:55;8.20;99.90
14908;DHT22;7545;52.092;7.006;2023-12-20T15:02:21;8.30;99.90
14908;DHT22;7545;52.092;7.006;2023-12-20T15:04:46;8.20;99.90
14908;DHT22;7545;52.092;7.006;2023-12-20T15:07:12;8.30;99.90
14908;DHT22;7545;52.092;7.006;2023-12-20T15:09:38;8.20;99.90
14908;DHT22;7545;52.092;7.006;2023-12-20T15:12:04;8.20;99.90
14908;DHT22;7545;52.092;7.006;2023-12-20T15:14:30;8.20;99.90
14908;DHT22;7545;52.092;7.006;2023-12-20T15:16:55;8.20;99.90
14908;DHT22;7545;52.092;7.006;2023-12-20T15:19:21;8.20;99.90
14908;DHT22;7545;52.092;7.006;2023-12-20T15:21:47;8.20;99.90
14908;DHT22;7545;52.092;7.006;2023-12-20T15:24:12;8.20;99.90
14908;DHT22;7545;52.092;7.006;2023-12-20T15:26:43;8.20;99.90
14908;DHT22;7545;52.092;7.006;2023-12-20T15:29:10;8.20;99.90
14908;DHT22;7545;52.092;7.006;2023-12-20T15:31:41;8.20;99.90
14908;DHT22;7545;52.092;7.006;2023-12-20T15:34:07;8.20;99.90
14908;DHT22;7545;52.092;7.006;2023-12-20T15:36:32;8.20;99.90
14908;DHT22;7545;52.092;7.006;2023-12-20T15:38:58;8.20;99.90
14908;DHT22;7545;52.092;7.006;2023-12-20T15:41:23;8.20;99.90
14908;DHT22;7545;52.092;7.006;2023-12-20T15:43:49;8.20;99.90
14908;DHT22;7545;52.092;7.006;2023-12-20T15:46:15;8.20;99.90
14908;DHT22;7545;52.092;7.006;2023-12-20T15:48:41;8.20;99.90
14908;DHT22;7545;52.092;7.006;2023-12-20T15:51:08;8.10;99.90
14908;DHT22;7545;52.092;7.006;2023-12-20T15:53:34;8.10;99.90
14908;DHT22;7545;52.092;7.006;2023-12-20T15:56:00;8.10;99.90
14908;DHT22;7545;52.092;7.006;2023-12-20T15:58:25;8.20;99.90
14908;DHT22;7545;52.092;7.006;2023-12-20T16:00:52;8.10;99.90